sensor_id;sensor_type;location;lat;lon;timestamp;pressure;altitude;pressure_sealevel;temperature;humidity
38718;BME280;24468;52.128;9.278;2023-04-20T00:00:05;101173.06;;;8.31;100.00
38718;BME280;24468;52.128;9.278;2023-04-20T00:02:36;101175.81;;;8.28;100.00
38718;BME280;24468;52.128;9.278;2023-04-20T00:05:07;101176.56;;;7.97;100.00
38718;BME280;24468;52.128;9.278;2023-04-20T00:07:33;101171.03;;;7.65;100.00
38718;BME280;24468;52.128;9.278;2023-04-20T00:10:00;101177.44;;;7.98;100.00
38718;BME280;24468;52.128;9.278;2023-04-20T00:12:26;101173.63;;;8.08;100.00
38718;BME280;24468;52.128;9.278;2023-04-20T00:14:51;101168.41;;;8.00;100.00
38718;BME280;24468;52.128;9.278;2023-04-20T00:17:18;101169.78;;;7.81;100.00
38718;BME280;24468;52.128;9.278;2023-04-20T00:19:43;101171.91;;;7.67;100.00
38718;BME280;24468;52.128;9.278;2023-04-20T00:22:09;101164.53;;;7.76;100.00
38718;BME280;24468;52.128;9.278;2023-04-20T00:24:35;101164.06;;;7.96;100.00
38718;BME280;24468;52.128;9.278;2023-04-20T00:27:00;101160.69;;;7.87;100.00
38718;BME280;24468;52.128;9.278;2023-04-20T00:29:26;101153.72;;;7.79;100.00
38718;BME280;24468;52.128;9.278;2023-04-20T00:31:51;101155.38;;;7.85;100.00
38718;BME280;24468;52.128;9.278;2023-04-20T00:34:17;101163.03;;;8.00;100.00
38718;BME280;24468;52.128;9.278;2023-04-20T00:36:43;101156.63;;;8.06;100.00
38718;BME280;24468;52.128;9.278;2023-04-20T00:39:09;101152.94;;;8.12;100.00
38718;BME280;24468;52.128;9.278;2023-04-20T00:41:34;101150.63;;;7.96;100.00
38718;BME280;24468;52.128;9.278;2023-04-20T00:44:00;101157.03;;;7.89;100.00
38718;BME280;24468;52.128;9.278;2023-04-20T00:46:26;101147.75;;;8.04;100.00
38718;BME280;24468;52.128;9.278;2023-04-20T00:48:53;101147.28;;;8.22;100.00
38718;BME280;24468;52.128;9.278;2023-04-20T00:51:22;101145.16;;;7.99;100.00
38718;BME280;24468;52.128;9.278;2023-04-20T00:53:47;101142.66;;;8.28;100.00
38718;BME280;24468;52.128;9.278;2023-04-20T00:56:14;101142.63;;;7.93;100.00
38718;BME280;24468;52.128;9.278;2023-04-20T00:58:41;101147.78;;;8.02;100.00
38718;BME280;24468;52.128;9.278;2023-04-20T01:01:08;101134.19;;;7.71;100.00
38718;BME280;24468;52.128;9.278;2023-04-20T01:03:35;101132.66;;;7.19;100.00
38718;BME280;24468;52.128;9.278;2023-04-20T01:06:01;101142.81;;;7.05;100.00
38718;BME280;24468;52.128;9.278;2023-04-20T01:08:27;101120.72;;;7.34;100.00
38718;BME280;24468;52.128;9.278;2023-04-20T01:10:56;101125.72;;;7.07;100.00
38718;BME280;24468;52.128;9.278;2023-04-20T01:13:22;101123.41;;;6.90;100.00
38718;BME280;24468;52.128;9.278;2023-04-20T01:15:48;101125.53;;;6.75;100.00
38718;BME280;24468;52.128;9.278;2023-04-20T01:18:14;101126.72;;;6.58;100.00
38718;BME280;24468;52.128;9.278;2023-04-20T01:20:40;101125.47;;;6.76;100.00
38718;BME280;24468;52.128;9.278;2023-04-20T01:23:05;101118.09;;;6.41;100.00
38718;BME280;24468;52.128;9.278;2023-04-20T01:25:31;101114.34;;;6.50;100.00
38718;BME280;24468;52.128;9.278;2023-04-20T01:27:56;101131.38;;;6.47;100.00
38718;BME280;24468;52.128;9.278;2023-04-20T01:30:22;101116.28;;;6.41;100.00
38718;BME280;24468;52.128;9.278;2023-04-20T01:32:47;101118.94;;;6.43;100.00
38718;BME280;24468;52.128;9.278;2023-04-20T01:35:13;101113.47;;;6.49;100.00
38718;BME280;24468;52.128;9.278;2023-04-20T01:37:41;101109.31;;;6.81;100.00
38718;BME280;24468;52.128;9.278;2023-04-20T01:40:12;101103.50;;;6.57;100.00
38718;BME280;24468;52.128;9.278;2023-04-20T01:42:38;101103.81;;;6.40;100.00
38718;BME280;24468;52.128;9.278;2023-04-20T01:45:05;101097.22;;;6.58;100.00
38718;BME280;24468;52.128;9.278;2023-04-20T01:47:31;101092.75;;;6.59;100.00
38718;BME280;24468;52.128;9.278;2023-04-20T01:49:57;101098.91;;;6.64;100.00
38718;BME280;24468;52.128;9.278;2023-04-20T01:52:22;101095.22;;;6.21;100.00
38718;BME280;24468;52.128;9.278;2023-04-20T01:54:48;101088.78;;;6.32;100.00
38718;BME280;24468;52.128;9.278;2023-04-20T01:57:13;101083.72;;;6.63;100.00
38718;BME280;24468;52.128;9.278;2023-04-20T01:59:39;101089.53;;;6.85;100.00
38718;BME280;24468;52.128;9.278;2023-04-20T02:02:04;101090.41;;;6.42;100.00
38718;BME280;24468;52.128;9.278;2023-04-20T02:04:30;101090.75;;;6.70;100.00
38718;BME280;24468;52.128;9.278;2023-04-20T02:06:56;101089.47;;;6.41;100.00
38718;BME280;24468;52.128;9.278;2023-04-20T02:09:21;101088.84;;;6.29;100.00
38718;BME280;24468;52.128;9.278;2023-04-20T02:11:47;101084.25;;;6.35;100.00
38718;BME280;24468;52.128;9.278;2023-04-20T02:14:12;101083.13;;;6.47;100.00
38718;BME280;24468;52.128;9.278;2023-04-20T02:16:38;101080.81;;;6.74;100.00
38718;BME280;24468;52.128;9.278;2023-04-20T02:19:03;101077.47;;;6.62;100.00
38718;BME280;24468;52.128;9.278;2023-04-20T02:21:29;101068.81;;;6.48;100.00
38718;BME280;24468;52.128;9.278;2023-04-20T02:23:55;101076.25;;;6.32;100.00
38718;BME280;24468;52.128;9.278;2023-04-20T02:26:21;101084.63;;;6.15;100.00
38718;BME280;24468;52.128;9.278;2023-04-20T02:28:46;101076.94;;;6.43;100.00
38718;BME280;24468;52.128;9.278;2023-04-20T02:31:12;101059.66;;;6.60;100.00
38718;BME280;24468;52.128;9.278;2023-04-20T02:33:37;101071.03;;;6.71;100.00
38718;BME280;24468;52.128;9.278;2023-04-20T02:36:03;101057.47;;;6.80;100.00
38718;BME280;24468;52.128;9.278;2023-04-20T02:38:29;101053.25;;;7.10;100.00
38718;BME280;24468;52.128;9.278;2023-04-20T02:40:54;101062.47;;;6.52;100.00
38718;BME280;24468;52.128;9.278;2023-04-20T02:43:20;101056.56;;;6.35;100.00
38718;BME280;24468;52.128;9.278;2023-04-20T02:45:45;101066.56;;;6.72;100.00
38718;BME280;24468;52.128;9.278;2023-04-20T02:48:11;101062.66;;;6.88;100.00
38718;BME280;24468;52.128;9.278;2023-04-20T02:50:37;101065.16;;;6.97;100.00
38718;BME280;24468;52.128;9.278;2023-04-20T02:53:03;101059.66;;;7.03;100.00
38718;BME280;24468;52.128;9.278;2023-04-20T02:55:29;101051.00;;;7.31;100.00
38718;BME280;24468;52.128;9.278;2023-04-20T02:57:54;101045.94;;;7.17;100.00
38718;BME280;24468;52.128;9.278;2023-04-20T03:00:20;101044.59;;;7.37;100.00
38718;BME280;24468;52.128;9.278;2023-04-20T03:02:45;101045.63;;;7.31;100.00
38718;BME280;24468;52.128;9.278;2023-04-20T03:05:11;101046.44;;;6.94;100.00
38718;BME280;24468;52.128;9.278;2023-04-20T03:07:37;101042.56;;;6.65;100.00
38718;BME280;24468;52.128;9.278;2023-04-20T03:10:03;101045.19;;;6.68;100.00
38718;BME280;24468;52.128;9.278;2023-04-20T03:12:29;101040.09;;;6.98;100.00
38718;BME280;24468;52.128;9.278;2023-04-20T03:14:56;101042.91;;;6.92;100.00
38718;BME280;24468;52.128;9.278;2023-04-20T03:17:21;101035.03;;;6.84;100.00
38718;BME280;24468;52.128;9.278;2023-04-20T03:19:47;101043.63;;;6.58;100.00
38718;BME280;24468;52.128;9.278;2023-04-20T03:22:12;101040.88;;;6.60;100.00
38718;BME280;24468;52.128;9.278;2023-04-20T03:24:38;101040.31;;;6.87;100.00
38718;BME280;24468;52.128;9.278;2023-04-20T03:27:04;101048.59;;;7.19;100.00
38718;BME280;24468;52.128;9.278;2023-04-20T03:29:29;101048.84;;;7.06;100.00
38718;BME280;24468;52.128;9.278;2023-04-20T03:31:55;101044.84;;;7.26;100.00
38718;BME280;24468;52.128;9.278;2023-04-20T03:34:20;101046.09;;;7.09;100.00
38718;BME280;24468;52.128;9.278;2023-04-20T03:36:46;101040.25;;;6.90;100.00
38718;BME280;24468;52.128;9.278;2023-04-20T03:39:11;101049.56;;;7.16;100.00
38718;BME280;24468;52.128;9.278;2023-04-20T03:41:37;101056.38;;;6.89;100.00
38718;BME280;24468;52.128;9.278;2023-04-20T03:44:03;101049.38;;;6.82;100.00
38718;BME280;24468;52.128;9.278;2023-04-20T03:46:28;101039.38;;;6.90;100.00
38718;BME280;24468;52.128;9.278;2023-04-20T03:48:54;101038.50;;;6.89;100.00
38718;BME280;24468;52.128;9.278;2023-04-20T03:51:19;101040.53;;;6.77;100.00
38718;BME280;24468;52.128;9.278;2023-04-20T03:53:45;101045.91;;;6.77;100.00
38718;BME280;24468;52.128;9.278;2023-04-20T03:56:10;101044.19;;;6.28;100.00
38718;BME280;24468;52.128;9.278;2023-04-20T03:58:36;101044.94;;;6.81;100.00
38718;BME280;24468;52.128;9.278;2023-04-20T04:01:05;101049.75;;;6.63;100.00
38718;BME280;24468;52.128;9.278;2023-04-20T04:03:33;101050.66;;;6.62;100.00
38718;BME280;24468;52.128;9.278;2023-04-20T04:05:59;101044.06;;;6.80;100.00
38718;BME280;24468;52.128;9.278;2023-04-20T04:08:24;101037.34;;;7.01;100.00
38718;BME280;24468;52.128;9.278;2023-04-20T04:10:50;101039.78;;;7.12;100.00
38718;BME280;24468;52.128;9.278;2023-04-20T04:13:15;101040.75;;;6.67;100.00
38718;BME280;24468;52.128;9.278;2023-04-20T04:15:41;101047.97;;;6.64;100.00
38718;BME280;24468;52.128;9.278;2023-04-20T04:18:07;101050.97;;;6.47;100.00
38718;BME280;24468;52.128;9.278;2023-04-20T04:20:32;101048.13;;;6.55;100.00
38718;BME280;24468;52.128;9.278;2023-04-20T04:22:58;101044.81;;;6.85;100.00
38718;BME280;24468;52.128;9.278;2023-04-20T04:25:23;101042.31;;;7.20;100.00
38718;BME280;24468;52.128;9.278;2023-04-20T04:27:49;101042.69;;;7.01;100.00
38718;BME280;24468;52.128;9.278;2023-04-20T04:30:15;101053.16;;;6.72;100.00
38718;BME280;24468;52.128;9.278;2023-04-20T04:32:42;101046.97;;;6.70;100.00
38718;BME280;24468;52.128;9.278;2023-04-20T04:35:09;101045.94;;;6.75;100.00
38718;BME280;24468;52.128;9.278;2023-04-20T04:37:34;101047.84;;;6.68;100.00
38718;BME280;24468;52.128;9.278;2023-04-20T04:40:01;101040.59;;;6.74;100.00
38718;BME280;24468;52.128;9.278;2023-04-20T04:42:27;101040.41;;;6.39;100.00
38718;BME280;24468;52.128;9.278;2023-04-20T04:44:53;101045.25;;;6.19;100.00
38718;BME280;24468;52.128;9.278;2023-04-20T04:47:21;101047.78;;;6.27;100.00
38718;BME280;24468;52.128;9.278;2023-04-20T04:49:48;101044.91;;;6.36;100.00
38718;BME280;24468;52.128;9.278;2023-04-20T04:52:14;101041.69;;;6.63;100.00
38718;BME280;24468;52.128;9.278;2023-04-20T04:54:39;101048.72;;;6.71;100.00
38718;BME280;24468;52.128;9.278;2023-04-20T04:57:05;101043.56;;;6.61;100.00
38718;BME280;24468;52.128;9.278;2023-04-20T04:59:31;101046.38;;;6.54;100.00
38718;BME280;24468;52.128;9.278;2023-04-20T05:01:57;101048.25;;;6.50;100.00
38718;BME280;24468;52.128;9.278;2023-04-20T05:04:22;101043.81;;;6.48;100.00
38718;BME280;24468;52.128;9.278;2023-04-20T05:06:48;101046.16;;;6.64;100.00
38718;BME280;24468;52.128;9.278;2023-04-20T05:09:13;101040.53;;;6.77;100.00
38718;BME280;24468;52.128;9.278;2023-04-20T05:11:39;101043.13;;;6.81;100.00
38718;BME280;24468;52.128;9.278;2023-04-20T05:14:04;101042.25;;;6.81;100.00
38718;BME280;24468;52.128;9.278;2023-04-20T05:16:30;101044.28;;;7.10;100.00
38718;BME280;24468;52.128;9.278;2023-04-20T05:18:55;101042.25;;;7.21;100.00
38718;BME280;24468;52.128;9.278;2023-04-20T05:21:21;101043.38;;;6.69;100.00
38718;BME280;24468;52.128;9.278;2023-04-20T05:23:46;101047.78;;;6.73;100.00
38718;BME280;24468;52.128;9.278;2023-04-20T05:26:12;101051.31;;;6.75;100.00
38718;BME280;24468;52.128;9.278;2023-04-20T05:28:38;101051.69;;;7.00;100.00
38718;BME280;24468;52.128;9.278;2023-04-20T05:31:03;101049.03;;;7.38;100.00
38718;BME280;24468;52.128;9.278;2023-04-20T05:33:29;101047.53;;;7.26;100.00
38718;BME280;24468;52.128;9.278;2023-04-20T05:35:56;101055.78;;;7.57;100.00
38718;BME280;24468;52.128;9.278;2023-04-20T05:38:22;101051.31;;;7.17;100.00
38718;BME280;24468;52.128;9.278;2023-04-20T05:40:48;101059.84;;;7.34;100.00
38718;BME280;24468;52.128;9.278;2023-04-20T05:43:13;101063.16;;;7.46;100.00
38718;BME280;24468;52.128;9.278;2023-04-20T05:45:39;101049.66;;;7.10;100.00
38718;BME280;24468;52.128;9.278;2023-04-20T05:48:04;101063.50;;;6.92;100.00
38718;BME280;24468;52.128;9.278;2023-04-20T05:50:30;101059.91;;;7.31;100.00
38718;BME280;24468;52.128;9.278;2023-04-20T05:52:56;101064.38;;;6.92;100.00
38718;BME280;24468;52.128;9.278;2023-04-20T05:55:21;101062.81;;;7.22;100.00
38718;BME280;24468;52.128;9.278;2023-04-20T05:57:47;101060.22;;;7.18;100.00
38718;BME280;24468;52.128;9.278;2023-04-20T06:00:14;101065.22;;;6.94;100.00
38718;BME280;24468;52.128;9.278;2023-04-20T06:02:41;101064.25;;;7.37;100.00
38718;BME280;24468;52.128;9.278;2023-04-20T06:05:08;101072.03;;;7.10;100.00
38718;BME280;24468;52.128;9.278;2023-04-20T06:07:35;101066.63;;;7.12;100.00
38718;BME280;24468;52.128;9.278;2023-04-20T06:10:01;101065.66;;;7.15;100.00
38718;BME280;24468;52.128;9.278;2023-04-20T06:12:27;101065.13;;;7.39;100.00
38718;BME280;24468;52.128;9.278;2023-04-20T06:14:55;101067.56;;;7.09;100.00
38718;BME280;24468;52.128;9.278;2023-04-20T06:17:21;101073.72;;;7.53;100.00
38718;BME280;24468;52.128;9.278;2023-04-20T06:19:46;101076.72;;;7.40;100.00
38718;BME280;24468;52.128;9.278;2023-04-20T06:22:12;101074.03;;;7.41;100.00
38718;BME280;24468;52.128;9.278;2023-04-20T06:24:38;101072.69;;;7.59;100.00
38718;BME280;24468;52.128;9.278;2023-04-20T06:27:09;101069.53;;;7.42;100.00
38718;BME280;24468;52.128;9.278;2023-04-20T06:29:35;101072.38;;;7.34;100.00
38718;BME280;24468;52.128;9.278;2023-04-20T06:32:00;101080.41;;;7.35;100.00
38718;BME280;24468;52.128;9.278;2023-04-20T06:34:26;101077.56;;;7.43;100.00
38718;BME280;24468;52.128;9.278;2023-04-20T06:36:51;101072.78;;;7.16;100.00
38718;BME280;24468;52.128;9.278;2023-04-20T06:39:17;101071.38;;;7.40;100.00
38718;BME280;24468;52.128;9.278;2023-04-20T06:41:43;101065.34;;;7.30;100.00
38718;BME280;24468;52.128;9.278;2023-04-20T06:44:08;101074.16;;;7.74;100.00
38718;BME280;24468;52.128;9.278;2023-04-20T06:46:34;101073.81;;;7.50;100.00
38718;BME280;24468;52.128;9.278;2023-04-20T06:49:00;101072.63;;;7.62;100.00
38718;BME280;24468;52.128;9.278;2023-04-20T06:51:27;101068.47;;;7.86;100.00
38718;BME280;24468;52.128;9.278;2023-04-20T06:53:54;101072.16;;;7.45;100.00
38718;BME280;24468;52.128;9.278;2023-04-20T06:56:19;101077.41;;;7.87;100.00
38718;BME280;24468;52.128;9.278;2023-04-20T06:58:46;101072.88;;;7.90;100.00
38718;BME280;24468;52.128;9.278;2023-04-20T07:01:11;101078.75;;;7.69;100.00
38718;BME280;24468;52.128;9.278;2023-04-20T07:03:37;101071.97;;;7.52;100.00
38718;BME280;24468;52.128;9.278;2023-04-20T07:06:03;101077.13;;;7.99;100.00
38718;BME280;24468;52.128;9.278;2023-04-20T07:08:29;101074.84;;;7.82;100.00
38718;BME280;24468;52.128;9.278;2023-04-20T07:10:54;101070.97;;;7.56;100.00
38718;BME280;24468;52.128;9.278;2023-04-20T07:13:20;101071.03;;;7.53;100.00
38718;BME280;24468;52.128;9.278;2023-04-20T07:15:46;101069.28;;;7.90;100.00
38718;BME280;24468;52.128;9.278;2023-04-20T07:18:12;101064.00;;;7.49;100.00
38718;BME280;24468;52.128;9.278;2023-04-20T07:20:37;101048.63;;;7.92;100.00
38718;BME280;24468;52.128;9.278;2023-04-20T07:23:03;101038.72;;;8.28;100.00
38718;BME280;24468;52.128;9.278;2023-04-20T07:25:29;101044.22;;;7.89;100.00
38718;BME280;24468;52.128;9.278;2023-04-20T07:27:57;101044.38;;;7.83;100.00
38718;BME280;24468;52.128;9.278;2023-04-20T07:30:22;101048.44;;;7.99;100.00
38718;BME280;24468;52.128;9.278;2023-04-20T07:32:48;101051.19;;;8.31;100.00
38718;BME280;24468;52.128;9.278;2023-04-20T07:35:14;101061.06;;;8.30;100.00
38718;BME280;24468;52.128;9.278;2023-04-20T07:37:40;101059.94;;;8.72;100.00
38718;BME280;24468;52.128;9.278;2023-04-20T07:40:06;101053.66;;;8.73;100.00
38718;BME280;24468;52.128;9.278;2023-04-20T07:42:33;101061.16;;;8.93;100.00
38718;BME280;24468;52.128;9.278;2023-04-20T07:44:59;101058.44;;;8.94;100.00
38718;BME280;24468;52.128;9.278;2023-04-20T07:47:24;101061.59;;;9.08;100.00
38718;BME280;24468;52.128;9.278;2023-04-20T07:49:50;101062.16;;;9.48;100.00
38718;BME280;24468;52.128;9.278;2023-04-20T07:52:16;101062.69;;;9.59;100.00
38718;BME280;24468;52.128;9.278;2023-04-20T07:54:45;101068.69;;;9.11;100.00
38718;BME280;24468;52.128;9.278;2023-04-20T07:57:11;101067.16;;;8.71;100.00
38718;BME280;24468;52.128;9.278;2023-04-20T07:59:37;101071.22;;;8.86;100.00
38718;BME280;24468;52.128;9.278;2023-04-20T08:02:02;101071.63;;;9.02;100.00
38718;BME280;24468;52.128;9.278;2023-04-20T08:04:28;101069.09;;;8.66;100.00
38718;BME280;24468;52.128;9.278;2023-04-20T08:06:54;101072.53;;;9.02;100.00
38718;BME280;24468;52.128;9.278;2023-04-20T08:09:20;101074.22;;;9.05;100.00
38718;BME280;24468;52.128;9.278;2023-04-20T08:11:45;101064.72;;;8.93;100.00
38718;BME280;24468;52.128;9.278;2023-04-20T08:14:12;101069.88;;;9.01;100.00
38718;BME280;24468;52.128;9.278;2023-04-20T08:16:38;101067.00;;;9.37;100.00
38718;BME280;24468;52.128;9.278;2023-04-20T08:19:03;101068.19;;;9.28;100.00
38718;BME280;24468;52.128;9.278;2023-04-20T08:21:35;101064.53;;;9.29;100.00
38718;BME280;24468;52.128;9.278;2023-04-20T08:24:02;101068.69;;;9.41;100.00
38718;BME280;24468;52.128;9.278;2023-04-20T08:26:28;101067.31;;;9.55;100.00
38718;BME280;24468;52.128;9.278;2023-04-20T08:28:53;101062.06;;;9.21;100.00
38718;BME280;24468;52.128;9.278;2023-04-20T08:31:19;101062.47;;;9.09;100.00
38718;BME280;24468;52.128;9.278;2023-04-20T08:33:45;101068.72;;;9.39;100.00
38718;BME280;24468;52.128;9.278;2023-04-20T08:36:10;101059.56;;;9.45;100.00
38718;BME280;24468;52.128;9.278;2023-04-20T08:38:36;101058.09;;;9.91;100.00
38718;BME280;24468;52.128;9.278;2023-04-20T08:41:02;101061.75;;;9.88;100.00
38718;BME280;24468;52.128;9.278;2023-04-20T08:43:28;101059.88;;;9.64;100.00
38718;BME280;24468;52.128;9.278;2023-04-20T08:45:58;101056.41;;;9.87;100.00
38718;BME280;24468;52.128;9.278;2023-04-20T08:48:24;101053.34;;;10.24;100.00
38718;BME280;24468;52.128;9.278;2023-04-20T08:50:53;101055.91;;;10.02;100.00
38718;BME280;24468;52.128;9.278;2023-04-20T08:53:18;101055.75;;;10.07;100.00
38718;BME280;24468;52.128;9.278;2023-04-20T08:55:44;101065.50;;;10.11;100.00
38718;BME280;24468;52.128;9.278;2023-04-20T08:58:10;101068.16;;;10.12;100.00
38718;BME280;24468;52.128;9.278;2023-04-20T09:00:46;101068.94;;;10.14;100.00
38718;BME280;24468;52.128;9.278;2023-04-20T09:03:12;101067.72;;;10.24;100.00
38718;BME280;24468;52.128;9.278;2023-04-20T09:05:37;101065.56;;;10.36;100.00
38718;BME280;24468;52.128;9.278;2023-04-20T09:08:04;101074.63;;;10.07;100.00
38718;BME280;24468;52.128;9.278;2023-04-20T09:10:43;101072.47;;;10.16;100.00
38718;BME280;24468;52.128;9.278;2023-04-20T09:13:21;101077.63;;;10.24;100.00
38718;BME280;24468;52.128;9.278;2023-04-20T09:15:47;101078.81;;;10.42;100.00
38718;BME280;24468;52.128;9.278;2023-04-20T09:18:13;101085.03;;;10.17;100.00
38718;BME280;24468;52.128;9.278;2023-04-20T09:20:39;101088.19;;;9.77;100.00
38718;BME280;24468;52.128;9.278;2023-04-20T09:23:19;101082.72;;;10.33;100.00
38718;BME280;24468;52.128;9.278;2023-04-20T09:25:49;101089.50;;;10.18;100.00
38718;BME280;24468;52.128;9.278;2023-04-20T09:28:16;101083.53;;;10.37;100.00
38718;BME280;24468;52.128;9.278;2023-04-20T09:30:47;101087.94;;;10.39;100.00
38718;BME280;24468;52.128;9.278;2023-04-20T09:33:13;101085.44;;;10.05;100.00
38718;BME280;24468;52.128;9.278;2023-04-20T09:35:41;101090.66;;;9.83;100.00
38718;BME280;24468;52.128;9.278;2023-04-20T09:38:08;101088.91;;;10.09;100.00
38718;BME280;24468;52.128;9.278;2023-04-20T09:40:34;101085.13;;;10.42;100.00
38718;BME280;24468;52.128;9.278;2023-04-20T09:43:16;101075.97;;;10.72;100.00
38718;BME280;24468;52.128;9.278;2023-04-20T09:45:42;101077.03;;;10.67;100.00
38718;BME280;24468;52.128;9.278;2023-04-20T09:48:08;101076.72;;;11.00;100.00
38718;BME280;24468;52.128;9.278;2023-04-20T09:50:36;101075.34;;;10.88;100.00
38718;BME280;24468;52.128;9.278;2023-04-20T09:53:03;101069.84;;;11.15;100.00
38718;BME280;24468;52.128;9.278;2023-04-20T09:55:30;101075.69;;;10.54;100.00
38718;BME280;24468;52.128;9.278;2023-04-20T09:57:56;101086.69;;;10.98;100.00
38718;BME280;24468;52.128;9.278;2023-04-20T10:00:23;101070.00;;;11.34;100.00
38718;BME280;24468;52.128;9.278;2023-04-20T10:02:49;101071.88;;;10.85;100.00
38718;BME280;24468;52.128;9.278;2023-04-20T10:05:15;101068.13;;;11.36;100.00
38718;BME280;24468;52.128;9.278;2023-04-20T10:07:41;101064.16;;;11.23;98.88
38718;BME280;24468;52.128;9.278;2023-04-20T10:10:12;101070.84;;;11.12;99.68
38718;BME280;24468;52.128;9.278;2023-04-20T10:12:53;101070.13;;;11.07;97.67
38718;BME280;24468;52.128;9.278;2023-04-20T10:15:19;101079.53;;;11.21;98.32
38718;BME280;24468;52.128;9.278;2023-04-20T10:17:49;101076.22;;;10.64;100.00
38718;BME280;24468;52.128;9.278;2023-04-20T10:20:26;101075.84;;;11.00;100.00
38718;BME280;24468;52.128;9.278;2023-04-20T10:22:53;101071.28;;;11.47;96.41
38718;BME280;24468;52.128;9.278;2023-04-20T10:25:23;101059.78;;;11.88;88.73
38718;BME280;24468;52.128;9.278;2023-04-20T10:28:00;101055.97;;;12.14;85.55
38718;BME280;24468;52.128;9.278;2023-04-20T10:30:31;101046.53;;;12.24;84.35
38718;BME280;24468;52.128;9.278;2023-04-20T10:33:10;101038.50;;;12.00;78.14
38718;BME280;24468;52.128;9.278;2023-04-20T10:35:55;101034.47;;;12.31;82.38
38718;BME280;24468;52.128;9.278;2023-04-20T10:38:34;101028.91;;;12.75;79.12
38718;BME280;24468;52.128;9.278;2023-04-20T10:41:10;101044.91;;;12.40;77.83
38718;BME280;24468;52.128;9.278;2023-04-20T10:43:36;101041.28;;;11.55;80.45
38718;BME280;24468;52.128;9.278;2023-04-20T10:46:23;101053.41;;;12.52;80.47
38718;BME280;24468;52.128;9.278;2023-04-20T10:49:00;101043.72;;;12.87;73.96
38718;BME280;24468;52.128;9.278;2023-04-20T10:51:26;101038.28;;;13.26;73.65
38718;BME280;24468;52.128;9.278;2023-04-20T10:54:03;101036.41;;;13.84;73.07
38718;BME280;24468;52.128;9.278;2023-04-20T10:56:46;101034.53;;;13.48;69.74
38718;BME280;24468;52.128;9.278;2023-04-20T10:59:22;101035.69;;;13.23;69.28
38718;BME280;24468;52.128;9.278;2023-04-20T11:01:49;101046.94;;;12.95;72.94
38718;BME280;24468;52.128;9.278;2023-04-20T11:04:15;101039.47;;;12.61;76.70
38718;BME280;24468;52.128;9.278;2023-04-20T11:06:45;101060.81;;;11.62;84.11
38718;BME280;24468;52.128;9.278;2023-04-20T11:09:20;101049.47;;;11.06;90.86
38718;BME280;24468;52.128;9.278;2023-04-20T11:12:01;101049.94;;;11.18;92.60
38718;BME280;24468;52.128;9.278;2023-04-20T11:14:30;101055.22;;;11.44;89.71
38718;BME280;24468;52.128;9.278;2023-04-20T11:16:55;101049.59;;;11.71;89.80
38718;BME280;24468;52.128;9.278;2023-04-20T11:19:34;101064.84;;;11.95;85.57
38718;BME280;24468;52.128;9.278;2023-04-20T11:22:02;101063.31;;;11.66;85.36
38718;BME280;24468;52.128;9.278;2023-04-20T11:24:30;101052.13;;;12.19;86.82
38718;BME280;24468;52.128;9.278;2023-04-20T11:26:56;101049.56;;;11.72;85.94
38718;BME280;24468;52.128;9.278;2023-04-20T11:29:32;101050.69;;;11.67;86.30
38718;BME280;24468;52.128;9.278;2023-04-20T11:32:00;101050.16;;;11.79;84.40
38718;BME280;24468;52.128;9.278;2023-04-20T11:34:26;101035.47;;;12.69;82.13
38718;BME280;24468;52.128;9.278;2023-04-20T11:36:52;101030.22;;;12.85;81.48
38718;BME280;24468;52.128;9.278;2023-04-20T11:39:26;101041.06;;;11.60;81.14
38718;BME280;24468;52.128;9.278;2023-04-20T11:41:54;101038.03;;;11.45;85.34
38718;BME280;24468;52.128;9.278;2023-04-20T11:44:22;101040.63;;;11.48;82.03
38718;BME280;24468;52.128;9.278;2023-04-20T11:46:48;101038.63;;;11.08;87.63
38718;BME280;24468;52.128;9.278;2023-04-20T11:49:18;101038.72;;;10.81;89.07
38718;BME280;24468;52.128;9.278;2023-04-20T11:51:45;101041.03;;;11.38;88.24
38718;BME280;24468;52.128;9.278;2023-04-20T11:54:13;101044.22;;;11.93;83.60
38718;BME280;24468;52.128;9.278;2023-04-20T11:56:40;101045.28;;;11.45;84.99
38718;BME280;24468;52.128;9.278;2023-04-20T11:59:09;101041.19;;;12.00;83.62
38718;BME280;24468;52.128;9.278;2023-04-20T12:01:35;101027.81;;;12.79;80.61
38718;BME280;24468;52.128;9.278;2023-04-20T12:04:01;101027.84;;;12.18;76.04
38718;BME280;24468;52.128;9.278;2023-04-20T12:06:27;101019.97;;;12.73;73.90
38718;BME280;24468;52.128;9.278;2023-04-20T12:08:59;101031.22;;;12.64;76.27
38718;BME280;24468;52.128;9.278;2023-04-20T12:11:25;101010.63;;;12.99;74.13
38718;BME280;24468;52.128;9.278;2023-04-20T12:13:50;101017.00;;;11.97;73.09
38718;BME280;24468;52.128;9.278;2023-04-20T12:16:16;101024.50;;;11.91;75.46
38718;BME280;24468;52.128;9.278;2023-04-20T12:18:42;101022.13;;;12.04;77.43
38718;BME280;24468;52.128;9.278;2023-04-20T12:21:07;101021.41;;;12.61;74.52
38718;BME280;24468;52.128;9.278;2023-04-20T12:23:33;101026.47;;;12.69;75.46
38718;BME280;24468;52.128;9.278;2023-04-20T12:26:02;101025.81;;;12.43;76.19
38718;BME280;24468;52.128;9.278;2023-04-20T12:28:29;101019.13;;;12.52;74.65
38718;BME280;24468;52.128;9.278;2023-04-20T12:30:55;101018.09;;;12.55;73.98
38718;BME280;24468;52.128;9.278;2023-04-20T12:33:20;101007.47;;;12.50;72.27
38718;BME280;24468;52.128;9.278;2023-04-20T12:35:46;101007.28;;;12.55;73.19
38718;BME280;24468;52.128;9.278;2023-04-20T12:38:11;101007.31;;;12.74;73.22
38718;BME280;24468;52.128;9.278;2023-04-20T12:40:37;101012.28;;;12.23;74.35
38718;BME280;24468;52.128;9.278;2023-04-20T12:43:02;101003.22;;;12.04;75.87
38718;BME280;24468;52.128;9.278;2023-04-20T12:45:28;100997.88;;;12.02;75.77